Time;durP1;ratioP1;P1;durP2;ratioP2;P2;SDS_P1;SDS_P2;PMS_P1;PMS_P2;Temp;Humidity;BMP_temperature;BMP_pressure;BME280_temperature;BME280_humidity;BME280_pressure;Samples;Min_cycle;Max_cycle;Signal;HPM_P1;HPM_P2
2023/05/20 00:02:01;;;;;;;;;;;17.90;50.90;;;;;;5095573;28;19924;-72
2023/05/20 00:04:27;;;;;;;;;;;17.90;51.00;;;;;;5113550;28;20041;-72
2023/05/20 00:06:53;;;;;;;;;;;18.00;51.00;;;;;;5095387;28;19926;-72
2023/05/20 00:09:19;;;;;;;;;;;17.90;51.00;;;;;;5095601;28;19923;-72
2023/05/20 00:11:45;;;;;;;;;;;17.90;51.00;;;;;;5113788;28;19994;-72
2023/05/20 00:14:10;;;;;;;;;;;17.90;51.00;;;;;;5095347;28;19920;-72
2023/05/20 00:16:36;;;;;;;;;;;17.90;51.00;;;;;;5095553;28;20049;-72
2023/05/20 00:19:02;;;;;;;;;;;17.90;51.10;;;;;;5113341;28;20405;-72
2023/05/20 00:21:30;;;;;;;;;;;17.90;51.10;;;;;;5095542;28;19924;-72
2023/05/20 00:23:56;;;;;;;;;;;17.90;51.10;;;;;;5094995;28;19923;-72
2023/05/20 00:26:22;;;;;;;;;;;17.80;51.00;;;;;;5113318;28;20444;-72
2023/05/20 00:28:47;;;;;;;;;;;17.80;51.10;;;;;;5095195;28;19920;-72
2023/05/20 00:31:13;;;;;;;;;;;17.90;51.10;;;;;;5113265;28;19920;-72
2023/05/20 00:33:38;;;;;;;;;;;17.80;51.10;;;;;;5094670;28;19968;-72
2023/05/20 00:36:04;;;;;;;;;;;17.90;51.20;;;;;;5094908;28;20354;-72
2023/05/20 00:38:29;;;;;;;;;;;17.80;51.10;;;;;;5113100;28;19919;-72
2023/05/20 00:40:55;;;;;;;;;;;17.80;51.10;;;;;;5095125;28;20018;-72
2023/05/20 00:43:21;;;;;;;;;;;17.80;51.20;;;;;;5095022;28;20317;-72
2023/05/20 00:45:47;;;;;;;;;;;17.80;51.20;;;;;;5112801;28;19963;-72
2023/05/20 00:48:12;;;;;;;;;;;17.80;51.20;;;;;;5095067;28;20393;-72
2023/05/20 00:50:38;;;;;;;;;;;17.80;51.20;;;;;;5094538;28;19926;-72
2023/05/20 00:53:04;;;;;;;;;;;17.80;52.00;;;;;;5094960;28;19920;-72
2023/05/20 00:55:30;;;;;;;;;;;17.80;51.30;;;;;;5094576;28;19920;-72
2023/05/20 00:57:55;;;;;;;;;;;17.80;51.30;;;;;;5094881;28;19920;-72
2023/05/20 01:00:21;;;;;;;;;;;17.70;51.20;;;;;;5094367;28;19985;-72
2023/05/20 01:02:47;;;;;;;;;;;17.80;51.30;;;;;;5112814;28;20018;-72
2023/05/20 01:05:12;;;;;;;;;;;17.80;51.40;;;;;;5112860;28;19924;-72
2023/05/20 01:07:38;;;;;;;;;;;17.80;51.40;;;;;;5112964;28;20032;-71
2023/05/20 01:10:04;;;;;;;;;;;17.70;51.30;;;;;;5094672;28;19919;-71
2023/05/20 01:12:33;;;;;;;;;;;17.70;51.40;;;;;;5094438;28;19919;-72
2023/05/20 01:15:02;;;;;;;;;;;17.70;51.40;;;;;;5112743;28;19920;-72
2023/05/20 01:17:31;;;;;;;;;;;17.70;51.40;;;;;;5094771;28;19942;-72
2023/05/20 01:19:58;;;;;;;;;;;17.70;51.40;;;;;;5112638;28;20014;-72
2023/05/20 01:22:25;;;;;;;;;;;17.70;51.40;;;;;;5112817;28;19919;-72
2023/05/20 01:24:52;;;;;;;;;;;17.70;51.50;;;;;;5094302;28;19924;-72
2023/05/20 01:27:19;;;;;;;;;;;17.70;51.50;;;;;;5094426;28;19926;-72
2023/05/20 01:29:47;;;;;;;;;;;17.60;52.20;;;;;;5112739;28;20264;-72
2023/05/20 01:34:57;;;;;;;;;;;17.60;51.50;;;;;;5110266;27;19918;-72
2023/05/20 01:37:24;;;;;;;;;;;17.70;51.50;;;;;;5108936;28;20394;-72
2023/05/20 01:39:50;;;;;;;;;;;17.60;51.50;;;;;;5109273;28;19927;-72
2023/05/20 01:42:16;;;;;;;;;;;17.70;51.60;;;;;;5110137;28;20334;-71
2023/05/20 01:44:42;;;;;;;;;;;17.60;51.60;;;;;;5108875;28;19920;-72
2023/05/20 01:47:07;;;;;;;;;;;17.60;51.60;;;;;;5108703;28;19969;-72
2023/05/20 01:49:33;;;;;;;;;;;17.60;51.70;;;;;;5109070;28;19923;-72
2023/05/20 01:51:58;;;;;;;;;;;17.60;51.70;;;;;;5108656;28;20323;-71
2023/05/20 01:54:24;;;;;;;;;;;17.60;51.70;;;;;;5110027;28;19990;-72
2023/05/20 01:56:50;;;;;;;;;;;17.60;51.70;;;;;;5109901;28;19920;-72
2023/05/20 01:59:15;;;;;;;;;;;17.60;51.70;;;;;;5110009;28;20406;-72
2023/05/20 02:01:41;;;;;;;;;;;17.60;51.70;;;;;;5108753;28;20387;-72
2023/05/20 02:04:06;;;;;;;;;;;17.60;51.70;;;;;;5108430;28;19970;-72
2023/05/20 02:06:32;;;;;;;;;;;17.60;51.70;;;;;;5108372;28;20063;-72
2023/05/20 02:08:57;;;;;;;;;;;17.60;51.70;;;;;;5108685;28;19930;-72
2023/05/20 02:11:23;;;;;;;;;;;17.60;51.80;;;;;;5108327;28;20435;-72
2023/05/20 02:13:49;;;;;;;;;;;17.60;51.80;;;;;;5109511;28;19928;-72
2023/05/20 02:16:14;;;;;;;;;;;17.60;51.80;;;;;;5109527;28;20394;-70
2023/05/20 02:18:41;;;;;;;;;;;17.50;51.70;;;;;;5108096;28;19983;-72
2023/05/20 02:21:06;;;;;;;;;;;17.50;51.80;;;;;;5108412;28;20002;-72
2023/05/20 02:23:32;;;;;;;;;;;17.60;51.80;;;;;;5108419;28;19928;-72
2023/05/20 02:25:57;;;;;;;;;;;17.60;51.80;;;;;;5109331;28;19970;-72
2023/05/20 02:28:23;;;;;;;;;;;17.50;51.80;;;;;;5109342;28;20375;-71
2023/05/20 02:30:51;;;;;;;;;;;17.50;51.80;;;;;;5109311;28;19920;-72
2023/05/20 02:33:18;;;;;;;;;;;17.60;51.90;;;;;;5107611;28;19978;-72
2023/05/20 02:35:44;;;;;;;;;;;17.60;51.90;;;;;;5109172;28;20391;-72
2023/05/20 02:38:11;;;;;;;;;;;17.50;51.90;;;;;;5108088;28;19966;-72
2023/05/20 02:40:36;;;;;;;;;;;17.50;52.00;;;;;;5108162;28;20020;-72
2023/05/20 02:43:02;;;;;;;;;;;17.50;52.00;;;;;;5107656;28;20423;-72
2023/05/20 02:45:27;;;;;;;;;;;17.50;51.90;;;;;;5098543;28;19988;-72
2023/05/20 02:47:53;;;;;;;;;;;17.50;51.90;;;;;;5094056;28;19974;-72
2023/05/20 02:50:18;;;;;;;;;;;17.50;52.00;;;;;;5094318;28;19920;-72
2023/05/20 02:52:44;;;;;;;;;;;17.50;51.90;;;;;;5094144;28;19921;-71
2023/05/20 02:55:10;;;;;;;;;;;17.50;51.90;;;;;;5093933;28;19920;-71
2023/05/20 02:57:37;;;;;;;;;;;17.50;51.90;;;;;;5094175;28;19920;-72
2023/05/20 03:00:04;;;;;;;;;;;17.50;52.00;;;;;;5094099;28;20019;-72
2023/05/20 03:02:30;;;;;;;;;;;17.50;52.00;;;;;;5095110;28;20371;-72
2023/05/20 03:04:55;;;;;;;;;;;17.50;52.00;;;;;;5093715;28;19927;-72
2023/05/20 03:07:21;;;;;;;;;;;17.50;52.00;;;;;;5127906;27;19924;-72
2023/05/20 03:09:46;;;;;;;;;;;17.50;52.00;;;;;;5093872;28;19920;-72
2023/05/20 03:12:12;;;;;;;;;;;17.50;51.90;;;;;;5093063;28;19926;-72
2023/05/20 03:14:37;;;;;;;;;;;17.50;52.00;;;;;;5093365;28;20397;-72
2023/05/20 03:17:03;;;;;;;;;;;17.50;52.70;;;;;;5093594;28;19924;-72
2023/05/20 03:19:28;;;;;;;;;;;17.50;52.80;;;;;;5093434;28;19947;-72
2023/05/20 03:21:54;;;;;;;;;;;17.50;52.00;;;;;;5093369;28;19973;-72
2023/05/20 03:24:22;;;;;;;;;;;17.50;52.00;;;;;;5093636;28;19923;-72
2023/05/20 03:26:47;;;;;;;;;;;17.40;52.00;;;;;;5094642;28;20390;-70
2023/05/20 03:29:13;;;;;;;;;;;17.50;52.10;;;;;;5093573;28;19920;-71
2023/05/20 03:31:38;;;;;;;;;;;17.40;52.00;;;;;;5093236;28;20337;-72
2023/05/20 03:34:04;;;;;;;;;;;17.40;52.00;;;;;;5093079;28;20023;-72
2023/05/20 03:36:30;;;;;;;;;;;17.40;52.10;;;;;;5094285;28;20371;-72
2023/05/20 03:38:55;;;;;;;;;;;17.40;52.10;;;;;;5093658;28;19920;-72
2023/05/20 03:41:21;;;;;;;;;;;17.40;52.10;;;;;;5092296;28;19967;-72
2023/05/20 03:43:47;;;;;;;;;;;17.40;52.10;;;;;;5093017;28;20011;-72
2023/05/20 03:46:12;;;;;;;;;;;17.50;52.20;;;;;;5092806;28;20061;-72
2023/05/20 03:48:37;;;;;;;;;;;17.40;52.20;;;;;;5094240;28;19931;-72
2023/05/20 03:51:03;;;;;;;;;;;17.40;52.20;;;;;;5092746;28;19924;-72
2023/05/20 03:53:28;;;;;;;;;;;17.40;52.20;;;;;;5093205;28;19924;-72
2023/05/20 03:55:54;;;;;;;;;;;17.40;52.20;;;;;;5092009;28;19942;-72
2023/05/20 03:58:21;;;;;;;;;;;17.40;52.20;;;;;;5092435;28;19946;-72
2023/05/20 04:00:46;;;;;;;;;;;17.40;52.20;;;;;;5092587;28;19920;-72
2023/05/20 04:03:12;;;;;;;;;;;17.40;52.20;;;;;;5093786;28;19926;-72
2023/05/20 04:05:38;;;;;;;;;;;17.30;52.20;;;;;;5092505;28;19924;-72
2023/05/20 04:08:03;;;;;;;;;;;17.30;52.20;;;;;;5092768;28;19921;-71
2023/05/20 04:10:31;;;;;;;;;;;17.30;52.20;;;;;;5091691;28;19920;-72
2023/05/20 04:12:56;;;;;;;;;;;17.30;52.20;;;;;;5093559;28;20337;-72
2023/05/20 04:15:24;;;;;;;;;;;17.30;52.30;;;;;;5093729;28;19924;-72
2023/05/20 04:17:51;;;;;;;;;;;17.30;52.30;;;;;;5092329;28;19926;-72
2023/05/20 04:20:17;;;;;;;;;;;17.30;52.30;;;;;;5093608;28;20300;-72
2023/05/20 04:22:43;;;;;;;;;;;17.30;52.30;;;;;;5091568;28;19927;-72
2023/05/20 04:25:09;;;;;;;;;;;17.30;52.30;;;;;;5093679;28;20011;-72
2023/05/20 04:27:36;;;;;;;;;;;17.30;52.40;;;;;;5092460;28;20417;-72
2023/05/20 04:30:02;;;;;;;;;;;17.30;52.30;;;;;;5093362;28;20064;-72
2023/05/20 04:32:29;;;;;;;;;;;17.30;52.30;;;;;;5093191;28;19923;-71
2023/05/20 04:34:54;;;;;;;;;;;17.30;52.40;;;;;;5095179;28;19924;-72
2023/05/20 04:37:21;;;;;;;;;;;17.30;52.40;;;;;;5095163;28;19942;-72
2023/05/20 04:39:48;;;;;;;;;;;17.30;52.40;;;;;;5095617;28;19931;-72
2023/05/20 04:42:14;;;;;;;;;;;17.20;52.30;;;;;;5113583;28;19920;-72
2023/05/20 04:44:40;;;;;;;;;;;17.20;52.40;;;;;;5095170;28;20390;-71
2023/05/20 04:47:06;;;;;;;;;;;17.20;52.40;;;;;;5095070;28;19927;-72
2023/05/20 04:49:33;;;;;;;;;;;17.20;52.40;;;;;;5095461;28;20367;-71
2023/05/20 04:51:59;;;;;;;;;;;17.30;52.40;;;;;;5113297;28;19920;-72
2023/05/20 04:54:25;;;;;;;;;;;17.30;52.50;;;;;;5113501;28;20316;-73
2023/05/20 04:56:51;;;;;;;;;;;17.20;52.40;;;;;;5094826;28;19941;-72
2023/05/20 04:59:16;;;;;;;;;;;17.20;52.40;;;;;;5095050;28;19920;-72
2023/05/20 05:01:41;;;;;;;;;;;17.30;52.50;;;;;;5095317;28;19924;-72
2023/05/20 05:04:07;;;;;;;;;;;17.20;52.40;;;;;;5094871;28;20358;-72
2023/05/20 05:06:33;;;;;;;;;;;17.20;52.40;;;;;;5094408;28;19920;-71
2023/05/20 05:08:58;;;;;;;;;;;17.20;52.50;;;;;;5113213;28;20251;-72
2023/05/20 05:11:23;;;;;;;;;;;17.20;52.50;;;;;;5113087;28;19959;-72
2023/05/20 05:13:49;;;;;;;;;;;17.20;53.20;;;;;;5094755;28;19986;-72
2023/05/20 05:16:14;;;;;;;;;;;17.20;52.50;;;;;;5094822;28;19920;-71
2023/05/20 05:18:40;;;;;;;;;;;17.20;52.50;;;;;;5094962;28;19944;-72
2023/05/20 05:21:05;;;;;;;;;;;17.20;52.50;;;;;;5112923;28;19919;-71
2023/05/20 05:23:31;;;;;;;;;;;17.20;52.50;;;;;;5094515;28;19927;-72
2023/05/20 05:25:57;;;;;;;;;;;17.20;52.60;;;;;;5095041;28;19920;-72
2023/05/20 05:28:23;;;;;;;;;;;17.20;52.60;;;;;;5094614;28;19927;-71
2023/05/20 05:30:49;;;;;;;;;;;17.20;52.60;;;;;;5094639;28;19919;-72
2023/05/20 05:33:14;;;;;;;;;;;17.20;52.60;;;;;;5094259;28;19930;-72
2023/05/20 05:35:41;;;;;;;;;;;17.20;53.30;;;;;;5094498;28;19924;-72
2023/05/20 05:38:06;;;;;;;;;;;17.20;52.60;;;;;;5113221;28;19965;-72
2023/05/20 05:40:32;;;;;;;;;;;17.30;52.70;;;;;;5112732;28;20370;-70
2023/05/20 05:42:57;;;;;;;;;;;17.20;52.60;;;;;;5094514;28;19976;-72
2023/05/20 05:45:23;;;;;;;;;;;17.20;52.60;;;;;;5094724;28;19973;-72
2023/05/20 05:47:48;;;;;;;;;;;17.20;52.60;;;;;;5094445;28;19920;-72
2023/05/20 05:50:14;;;;;;;;;;;17.20;52.60;;;;;;5094368;28;19920;-72
2023/05/20 05:52:40;;;;;;;;;;;17.20;52.60;;;;;;5094574;28;19926;-72
2023/05/20 05:55:05;;;;;;;;;;;17.20;52.60;;;;;;5094257;28;19927;-72
2023/05/20 05:57:31;;;;;;;;;;;17.20;52.60;;;;;;5094239;28;19920;-71
2023/05/20 05:59:56;;;;;;;;;;;17.20;52.60;;;;;;5094254;28;19920;-72
2023/05/20 06:02:22;;;;;;;;;;;17.20;52.60;;;;;;5094612;28;19926;-72
2023/05/20 06:04:48;;;;;;;;;;;17.20;52.60;;;;;;5094197;28;19994;-72
2023/05/20 06:07:13;;;;;;;;;;;17.20;52.60;;;;;;5094532;28;19920;-72
2023/05/20 06:09:39;;;;;;;;;;;17.20;52.60;;;;;;5094058;28;19926;-72
2023/05/20 06:12:04;;;;;;;;;;;17.20;52.60;;;;;;5094258;28;19919;-72
2023/05/20 06:14:31;;;;;;;;;;;17.20;52.60;;;;;;5094157;28;20041;-71
2023/05/20 06:16:56;;;;;;;;;;;17.20;52.60;;;;;;5112411;28;19923;-71
2023/05/20 06:19:22;;;;;;;;;;;17.20;52.50;;;;;;5112393;28;19920;-72
2023/05/20 06:21:47;;;;;;;;;;;17.20;52.60;;;;;;5098171;28;19985;-71
2023/05/20 06:24:13;;;;;;;;;;;17.20;52.50;;;;;;5116207;28;19966;-72
2023/05/20 06:26:38;;;;;;;;;;;17.20;52.60;;;;;;5098130;28;19920;-72
2023/05/20 06:29:04;;;;;;;;;;;17.20;52.60;;;;;;5098139;28;20282;-72
2023/05/20 06:31:29;;;;;;;;;;;17.20;52.50;;;;;;5098108;28;20438;-72
2023/05/20 06:33:55;;;;;;;;;;;17.20;52.50;;;;;;5097441;28;20286;-72
2023/05/20 06:36:20;;;;;;;;;;;17.30;52.50;;;;;;5097520;28;19998;-72
2023/05/20 06:38:46;;;;;;;;;;;17.20;52.50;;;;;;5096895;28;20014;-72
2023/05/20 06:41:11;;;;;;;;;;;17.20;53.20;;;;;;5115602;28;19920;-71
2023/05/20 06:43:37;;;;;;;;;;;17.20;52.40;;;;;;5097837;28;19970;-71
2023/05/20 06:46:03;;;;;;;;;;;17.20;52.40;;;;;;5097710;28;19950;-72
2023/05/20 06:48:28;;;;;;;;;;;17.30;52.50;;;;;;5097512;28;20299;-71
2023/05/20 06:50:54;;;;;;;;;;;17.30;52.40;;;;;;5080755;28;19919;-72
2023/05/20 06:53:20;;;;;;;;;;;17.20;52.40;;;;;;5097651;28;20413;-71
2023/05/20 06:55:45;;;;;;;;;;;17.30;52.40;;;;;;5115663;28;20345;-69
2023/05/20 06:58:11;;;;;;;;;;;17.30;52.40;;;;;;5097128;28;19989;-71
2023/05/20 07:00:36;;;;;;;;;;;17.30;52.40;;;;;;5115483;28;19920;-72
2023/05/20 07:03:02;;;;;;;;;;;17.30;52.40;;;;;;5097491;28;19919;-71
2023/05/20 07:05:27;;;;;;;;;;;17.30;52.40;;;;;;5097533;28;19967;-71
2023/05/20 07:07:53;;;;;;;;;;;17.30;52.40;;;;;;5097367;28;20382;-72
2023/05/20 07:10:18;;;;;;;;;;;17.30;52.30;;;;;;5097002;28;20408;-70
2023/05/20 07:12:44;;;;;;;;;;;17.30;52.30;;;;;;5097086;28;19926;-70
2023/05/20 07:15:09;;;;;;;;;;;17.40;52.40;;;;;;5115260;28;19920;-70
2023/05/20 07:17:35;;;;;;;;;;;17.30;52.30;;;;;;5115540;28;19965;-72
2023/05/20 07:20:02;;;;;;;;;;;17.30;52.40;;;;;;5115306;28;20393;-71
2023/05/20 07:22:28;;;;;;;;;;;17.30;52.30;;;;;;5097035;28;19923;-72
2023/05/20 07:24:54;;;;;;;;;;;17.40;52.40;;;;;;5115182;28;20286;-72
2023/05/20 07:27:19;;;;;;;;;;;17.40;52.40;;;;;;5096668;28;19968;-72
2023/05/20 07:29:45;;;;;;;;;;;17.40;53.10;;;;;;5114925;28;19920;-71
2023/05/20 07:32:10;;;;;;;;;;;17.40;52.40;;;;;;5114724;28;19920;-71
2023/05/20 07:34:36;;;;;;;;;;;17.40;52.40;;;;;;5096526;28;19947;-72
2023/05/20 07:37:02;;;;;;;;;;;17.40;52.40;;;;;;5114024;28;19920;-72
2023/05/20 07:39:27;;;;;;;;;;;17.40;52.40;;;;;;5096365;28;19927;-71
2023/05/20 07:41:53;;;;;;;;;;;17.40;52.40;;;;;;5096731;28;19926;-72
2023/05/20 07:44:20;;;;;;;;;;;17.40;52.40;;;;;;5096262;28;20374;-72
2023/05/20 07:46:45;;;;;;;;;;;17.40;52.40;;;;;;5096389;28;19920;-70
2023/05/20 07:49:11;;;;;;;;;;;17.40;52.40;;;;;;5096508;28;19927;-72
2023/05/20 07:51:36;;;;;;;;;;;17.40;52.40;;;;;;5096536;28;20011;-72
2023/05/20 07:54:02;;;;;;;;;;;17.40;52.50;;;;;;5096035;28;20379;-71
2023/05/20 07:56:28;;;;;;;;;;;17.40;52.50;;;;;;5096463;28;20018;-69
2023/05/20 07:58:55;;;;;;;;;;;17.40;52.50;;;;;;5095571;28;19926;-71
2023/05/20 08:01:20;;;;;;;;;;;17.40;52.50;;;;;;5114151;28;20352;-72
2023/05/20 08:03:46;;;;;;;;;;;17.40;52.50;;;;;;5095991;28;19919;-71
2023/05/20 08:06:11;;;;;;;;;;;17.40;52.50;;;;;;5095492;28;19942;-72
2023/05/20 08:08:39;;;;;;;;;;;17.40;52.50;;;;;;5095951;28;19926;-71
2023/05/20 08:11:05;;;;;;;;;;;17.40;52.60;;;;;;5096236;28;20023;-72
2023/05/20 08:13:30;;;;;;;;;;;17.40;52.50;;;;;;5095523;28;20369;-72
2023/05/20 08:15:56;;;;;;;;;;;17.40;52.50;;;;;;5113921;28;19923;-71
2023/05/20 08:18:22;;;;;;;;;;;17.40;52.50;;;;;;5095626;28;19964;-71
2023/05/20 08:20:47;;;;;;;;;;;17.50;52.60;;;;;;5095906;28;19924;-71
2023/05/20 08:23:13;;;;;;;;;;;17.40;52.50;;;;;;5113922;28;19940;-72
2023/05/20 08:25:38;;;;;;;;;;;17.40;52.50;;;;;;5095521;28;19919;-72
2023/05/20 08:28:05;;;;;;;;;;;17.50;52.60;;;;;;5113809;28;20053;-70
2023/05/20 08:30:31;;;;;;;;;;;17.50;52.60;;;;;;5095713;28;20010;-70
2023/05/20 08:32:56;;;;;;;;;;;17.40;52.60;;;;;;5091682;28;19963;-71
2023/05/20 08:35:22;;;;;;;;;;;17.50;52.90;;;;;;5091910;28;19924;-72
2023/05/20 08:37:48;;;;;;;;;;;17.50;52.50;;;;;;5092324;28;19924;-71
2023/05/20 08:40:14;;;;;;;;;;;17.50;52.50;;;;;;5092205;28;19935;-71
2023/05/20 08:42:41;;;;;;;;;;;17.50;52.50;;;;;;5091828;28;20348;-72
2023/05/20 08:45:09;;;;;;;;;;;17.40;52.50;;;;;;5092013;28;20007;-72
2023/05/20 08:47:35;;;;;;;;;;;17.50;52.70;;;;;;5093164;28;19920;-70
2023/05/20 08:50:01;;;;;;;;;;;17.50;52.60;;;;;;5091808;28;20006;-71
2023/05/20 08:52:27;;;;;;;;;;;17.50;52.50;;;;;;5093141;28;19920;-71
2023/05/20 08:54:52;;;;;;;;;;;17.50;52.50;;;;;;5091649;28;20303;-71
2023/05/20 08:57:20;;;;;;;;;;;17.50;52.50;;;;;;5091951;28;19928;-71
2023/05/20 08:59:45;;;;;;;;;;;17.50;52.50;;;;;;5092778;28;19927;-72
2023/05/20 09:02:11;;;;;;;;;;;17.50;52.50;;;;;;5091601;28;20374;-72
2023/05/20 09:04:37;;;;;;;;;;;17.50;52.50;;;;;;5091584;28;20283;-72
2023/05/20 09:07:02;;;;;;;;;;;17.60;52.50;;;;;;5092794;28;19920;-72
2023/05/20 09:09:28;;;;;;;;;;;17.60;52.40;;;;;;5091759;28;19924;-71
2023/05/20 09:11:54;;;;;;;;;;;17.60;52.30;;;;;;5091762;28;19920;-71
2023/05/20 09:14:19;;;;;;;;;;;17.60;52.60;;;;;;5091370;28;20380;-72
2023/05/20 09:16:46;;;;;;;;;;;17.60;52.10;;;;;;5091605;28;19924;-72
2023/05/20 09:19:11;;;;;;;;;;;17.70;52.10;;;;;;5091736;28;19983;-71
2023/05/20 09:21:39;;;;;;;;;;;17.70;52.10;;;;;;5091482;28;20411;-71
2023/05/20 09:24:05;;;;;;;;;;;17.70;52.00;;;;;;5092777;28;20264;-72
2023/05/20 09:26:31;;;;;;;;;;;17.70;52.00;;;;;;5091242;28;19927;-70
2023/05/20 09:28:57;;;;;;;;;;;17.70;52.00;;;;;;5091778;28;19923;-70
2023/05/20 09:31:27;;;;;;;;;;;17.70;51.90;;;;;;5091385;28;19920;-72
2023/05/20 09:33:53;;;;;;;;;;;17.70;51.90;;;;;;5104374;28;20362;-72
2023/05/20 09:36:20;;;;;;;;;;;17.80;51.90;;;;;;5094392;28;20375;-71
2023/05/20 09:38:46;;;;;;;;;;;17.80;52.00;;;;;;5113150;28;19984;-72
2023/05/20 09:41:12;;;;;;;;;;;17.80;51.90;;;;;;5094357;28;19920;-71
2023/05/20 09:43:39;;;;;;;;;;;17.80;52.00;;;;;;5112771;28;19923;-71
2023/05/20 09:46:06;;;;;;;;;;;17.80;51.90;;;;;;5094676;28;19920;-72
2023/05/20 09:48:32;;;;;;;;;;;17.80;51.90;;;;;;5094679;28;20061;-72
2023/05/20 09:50:57;;;;;;;;;;;17.80;51.90;;;;;;5094726;28;20383;-71
2023/05/20 09:53:26;;;;;;;;;;;17.80;51.80;;;;;;5094185;28;19989;-71
2023/05/20 09:55:51;;;;;;;;;;;17.80;51.80;;;;;;5096921;28;19920;-71
2023/05/20 09:58:18;;;;;;;;;;;17.80;51.80;;;;;;5098316;28;19942;-72
2023/05/20 10:00:44;;;;;;;;;;;17.80;51.90;;;;;;5098689;28;19919;-72
2023/05/20 10:03:09;;;;;;;;;;;17.80;51.80;;;;;;5097746;28;19919;-72
2023/05/20 10:05:37;;;;;;;;;;;17.80;51.80;;;;;;5098451;28;19927;-71
2023/05/20 10:08:22;;;;;;;;;;;17.80;51.90;;;;;;5098203;28;19920;-72
2023/05/20 10:10:52;;;;;;;;;;;17.80;51.80;;;;;;5098456;28;20205;-71
2023/05/20 10:13:25;;;;;;;;;;;17.90;51.90;;;;;;5097917;28;19931;-71
2023/05/20 10:15:58;;;;;;;;;;;17.80;51.90;;;;;;5098641;28;19966;-69
2023/05/20 10:21:13;;;;;;;;;;;17.80;51.90;;;;;;5089965;28;19916;-71
2023/05/20 10:23:38;;;;;;;;;;;17.90;52.00;;;;;;5089883;28;20272;-71
2023/05/20 10:26:05;;;;;;;;;;;17.90;51.90;;;;;;5088535;28;19927;-72
2023/05/20 10:28:32;;;;;;;;;;;17.90;52.00;;;;;;5088791;28;19920;-70
2023/05/20 10:30:58;;;;;;;;;;;17.90;52.00;;;;;;5088494;28;19927;-71
2023/05/20 10:33:27;;;;;;;;;;;17.90;52.00;;;;;;5088520;28;19920;-72
2023/05/20 10:35:53;;;;;;;;;;;17.90;52.00;;;;;;5089664;28;20392;-71
2023/05/20 10:38:20;;;;;;;;;;;17.90;52.00;;;;;;5088672;28;20329;-72
2023/05/20 10:40:46;;;;;;;;;;;17.80;52.00;;;;;;5088257;28;19929;-71
2023/05/20 10:43:12;;;;;;;;;;;17.90;52.10;;;;;;5088517;28;20026;-72
2023/05/20 10:45:54;;;;;;;;;;;17.90;52.10;;;;;;5088275;28;19920;-71
2023/05/20 10:48:28;;;;;;;;;;;17.90;52.20;;;;;;5088127;28;20440;-72
2023/05/20 10:50:56;;;;;;;;;;;17.90;52.20;;;;;;5088506;28;19924;-71
2023/05/20 10:53:25;;;;;;;;;;;17.80;52.20;;;;;;5088003;28;20054;-71
2023/05/20 10:55:52;;;;;;;;;;;17.90;52.30;;;;;;5089459;28;19921;-71
2023/05/20 10:58:18;;;;;;;;;;;17.90;52.40;;;;;;5088198;28;19943;-72
2023/05/20 11:00:46;;;;;;;;;;;17.90;52.50;;;;;;5087852;28;20364;-72
2023/05/20 11:03:13;;;;;;;;;;;17.80;52.30;;;;;;5087885;28;19920;-72
2023/05/20 11:05:39;;;;;;;;;;;17.90;52.40;;;;;;5088100;28;19921;-71
2023/05/20 11:08:07;;;;;;;;;;;17.90;52.40;;;;;;5088045;28;20403;-72
2023/05/20 11:10:33;;;;;;;;;;;17.80;52.50;;;;;;5087969;28;20011;-71
2023/05/20 11:13:00;;;;;;;;;;;17.80;52.50;;;;;;5087735;28;19928;-72
2023/05/20 11:15:25;;;;;;;;;;;17.90;52.50;;;;;;5104537;28;20023;-71
2023/05/20 11:17:53;;;;;;;;;;;17.90;52.50;;;;;;5087920;28;20011;-71
2023/05/20 11:20:19;;;;;;;;;;;17.90;52.50;;;;;;5087356;28;19925;-71
2023/05/20 11:22:44;;;;;;;;;;;17.80;52.40;;;;;;5087389;28;19956;-72
2023/05/20 11:25:10;;;;;;;;;;;17.90;52.50;;;;;;5087681;28;19971;-72
2023/05/20 11:27:38;;;;;;;;;;;17.80;52.60;;;;;;5087454;28;19924;-71
2023/05/20 11:30:04;;;;;;;;;;;17.90;52.60;;;;;;5087320;28;19920;-71
2023/05/20 11:32:30;;;;;;;;;;;17.80;52.60;;;;;;5074556;28;19927;-72
2023/05/20 11:34:56;;;;;;;;;;;17.90;52.60;;;;;;5074039;28;19924;-71
2023/05/20 11:37:22;;;;;;;;;;;17.90;52.70;;;;;;5075015;28;19921;-71
2023/05/20 11:39:48;;;;;;;;;;;17.90;52.70;;;;;;5073819;28;20360;-72
2023/05/20 11:42:14;;;;;;;;;;;17.90;52.70;;;;;;5073529;28;19963;-72
2023/05/20 11:44:44;;;;;;;;;;;17.90;52.80;;;;;;5073853;28;19921;-72
2023/05/20 11:47:09;;;;;;;;;;;17.90;52.90;;;;;;5073910;28;19924;-71
2023/05/20 11:49:38;;;;;;;;;;;17.90;52.90;;;;;;5073454;28;20367;-72
2023/05/20 11:52:04;;;;;;;;;;;17.90;52.80;;;;;;5073302;28;19920;-70
2023/05/20 11:54:34;;;;;;;;;;;17.90;52.80;;;;;;5073668;28;19927;-71
2023/05/20 11:56:59;;;;;;;;;;;17.80;52.80;;;;;;5073832;28;20368;-71
2023/05/20 11:59:25;;;;;;;;;;;17.90;52.80;;;;;;5073569;28;19925;-71
2023/05/20 12:01:51;;;;;;;;;;;17.90;52.90;;;;;;5073552;28;19924;-71
2023/05/20 12:04:17;;;;;;;;;;;17.90;52.90;;;;;;5072404;28;19925;-72
2023/05/20 12:06:42;;;;;;;;;;;17.90;52.90;;;;;;5072120;28;20003;-72
2023/05/20 12:09:09;;;;;;;;;;;17.90;52.90;;;;;;5071024;28;20023;-71
2023/05/20 12:11:35;;;;;;;;;;;18.00;53.70;;;;;;5073307;28;19965;-70
2023/05/20 12:14:02;;;;;;;;;;;18.10;54.80;;;;;;5073346;28;19921;-68
2023/05/20 12:16:29;;;;;;;;;;;18.20;54.10;;;;;;5072915;28;19921;-70
2023/05/20 12:18:55;;;;;;;;;;;18.30;54.00;;;;;;5074395;28;20395;-71
2023/05/20 12:21:20;;;;;;;;;;;18.50;54.20;;;;;;5074452;28;19920;-71
2023/05/20 12:23:46;;;;;;;;;;;18.50;54.10;;;;;;5093901;28;19920;-71
2023/05/20 12:26:11;;;;;;;;;;;18.50;54.10;;;;;;5076488;28;20331;-71
2023/05/20 12:28:37;;;;;;;;;;;18.40;53.90;;;;;;5094209;28;19919;-71
2023/05/20 12:31:02;;;;;;;;;;;18.40;53.90;;;;;;5076380;28;19920;-71
2023/05/20 12:33:28;;;;;;;;;;;18.40;54.00;;;;;;5075925;28;20383;-72
2023/05/20 12:35:53;;;;;;;;;;;18.30;53.90;;;;;;5076257;28;19927;-71
2023/05/20 12:38:19;;;;;;;;;;;18.30;53.90;;;;;;5075780;28;19920;-71
2023/05/20 12:40:44;;;;;;;;;;;18.30;54.00;;;;;;5093938;28;19931;-71
2023/05/20 12:43:10;;;;;;;;;;;18.30;54.00;;;;;;5075054;28;19920;-69
2023/05/20 12:45:35;;;;;;;;;;;18.30;53.90;;;;;;5094065;28;20016;-71
2023/05/20 12:48:01;;;;;;;;;;;18.20;53.90;;;;;;5093808;28;20264;-71
2023/05/20 12:50:26;;;;;;;;;;;18.20;53.90;;;;;;5076014;28;19920;-71
2023/05/20 12:52:52;;;;;;;;;;;18.20;53.90;;;;;;5093722;28;19920;-70
2023/05/20 12:55:18;;;;;;;;;;;18.20;53.90;;;;;;5093673;28;19920;-71
2023/05/20 12:57:46;;;;;;;;;;;18.20;53.90;;;;;;5075459;28;19920;-72
2023/05/20 13:00:12;;;;;;;;;;;18.20;54.00;;;;;;5093716;28;20024;-70
2023/05/20 13:02:38;;;;;;;;;;;18.20;53.90;;;;;;5075756;28;20015;-71
2023/05/20 13:05:04;;;;;;;;;;;18.20;54.70;;;;;;5093968;28;20313;-72
2023/05/20 13:07:30;;;;;;;;;;;18.20;53.90;;;;;;5092451;28;19969;-71
2023/05/20 13:09:56;;;;;;;;;;;18.20;53.90;;;;;;5075184;28;19977;-70
2023/05/20 13:12:21;;;;;;;;;;;18.10;53.80;;;;;;5075531;28;19920;-71
2023/05/20 13:14:47;;;;;;;;;;;18.20;53.90;;;;;;5093425;28;20371;-71
2023/05/20 13:17:12;;;;;;;;;;;18.20;53.80;;;;;;5075560;28;19920;-71
2023/05/20 13:19:39;;;;;;;;;;;18.20;53.80;;;;;;5093155;28;20023;-71
2023/05/20 13:22:05;;;;;;;;;;;18.10;53.70;;;;;;5093308;28;19920;-72
2023/05/20 13:24:32;;;;;;;;;;;18.10;53.70;;;;;;5075217;28;19920;-71
2023/05/20 13:26:59;;;;;;;;;;;18.20;53.70;;;;;;5075317;28;19919;-72
2023/05/20 13:29:25;;;;;;;;;;;18.10;53.60;;;;;;5093054;28;19920;-71
2023/05/20 13:31:50;;;;;;;;;;;18.10;53.60;;;;;;5075255;28;20064;-72
2023/05/20 13:34:16;;;;;;;;;;;18.20;53.70;;;;;;5093002;28;19935;-72
2023/05/20 13:36:41;;;;;;;;;;;18.20;53.70;;;;;;5074864;28;20383;-71
2023/05/20 13:39:07;;;;;;;;;;;18.20;53.70;;;;;;5092723;28;19931;-72
2023/05/20 13:41:32;;;;;;;;;;;18.10;53.60;;;;;;5074831;28;19920;-72
2023/05/20 13:43:58;;;;;;;;;;;18.20;53.70;;;;;;5075016;28;19943;-71
2023/05/20 13:46:23;;;;;;;;;;;18.20;53.60;;;;;;5074887;28;19927;-71
2023/05/20 13:48:49;;;;;;;;;;;18.20;53.60;;;;;;5074921;28;19946;-71
2023/05/20 13:51:14;;;;;;;;;;;18.20;53.60;;;;;;5074862;28;19926;-71
2023/05/20 13:53:40;;;;;;;;;;;18.20;54.30;;;;;;5074379;28;19920;-71
2023/05/20 13:56:08;;;;;;;;;;;18.20;53.50;;;;;;5074421;28;19923;-71
2023/05/20 13:58:34;;;;;;;;;;;18.20;53.50;;;;;;5074875;28;19920;-71
2023/05/20 14:00:59;;;;;;;;;;;18.20;53.50;;;;;;5091310;28;19928;-70
2023/05/20 14:03:25;;;;;;;;;;;18.20;53.50;;;;;;5073953;28;20345;-69
2023/05/20 14:05:51;;;;;;;;;;;18.20;53.50;;;;;;5074233;28;19920;-72
2023/05/20 14:08:16;;;;;;;;;;;18.20;53.50;;;;;;5074395;28;19959;-72
2023/05/20 14:10:41;;;;;;;;;;;18.20;53.50;;;;;;5074315;28;19970;-72
2023/05/20 14:13:09;;;;;;;;;;;18.20;53.40;;;;;;5092336;28;19920;-72
2023/05/20 14:15:37;;;;;;;;;;;18.20;53.40;;;;;;5074559;28;19966;-72